Hiram, Maine
Current Conditions -  °F | °C
As of 2:54 PM on Monday 24 Nov 2014 (Local Time) from KIZG Reporting Station
Light Rain Light Rain  
Wind Chill: 47°   Ceiling: 300
Heat Index: 47°   Visibility: 8mi
Dew Point: 46°   Wind: 3mph
Humidity: 97%   Direction: 310°NW
Pressure: 29.54"   Gusts: NA
Location:  43.81°N, 70.87°W
Report Text: KIZG 241954Z AUTO 31003KT 8SM -RA OVC003 08/08 A2954 RMK AO2 RAB40 SLP006 P0000 T00830078
Loading
Personal Weather Stations






























Interactive Weather Map New forecast layout! Learn more

10-Day Weather Forecast

Advertisements
Track Severe Weather on mobile